createdAt,value
2022-12-15T00:02:40.532Z,52.00
2022-12-15T00:06:01.397Z,53.53
2022-12-15T00:09:25.160Z,51.10
2022-12-15T00:12:47.970Z,57.00
2022-12-15T00:16:08.263Z,49.67
2022-12-15T00:19:28.628Z,58.13
2022-12-15T00:22:49.238Z,49.75
2022-12-15T00:29:31.163Z,47.22
2022-12-15T00:32:51.793Z,61.78
2022-12-15T00:39:13.476Z,49.13
2022-12-15T00:42:15.034Z,53.65
2022-12-15T00:45:16.810Z,57.35
2022-12-15T00:48:18.587Z,65.55
2022-12-15T00:51:20.420Z,55.53
2022-12-15T00:54:40.496Z,61.33
2022-12-15T00:58:01.065Z,62.63
2022-12-15T01:04:46.876Z,56.40
2022-12-15T01:08:07.198Z,72.20
2022-12-15T01:11:27.614Z,55.92
2022-12-15T01:14:48.308Z,63.88
2022-12-15T01:18:08.692Z,65.03
2022-12-15T01:21:13.092Z,64.32
2022-12-15T01:24:14.650Z,64.82
2022-12-15T01:27:16.358Z,51.55
2022-12-15T01:30:20.814Z,68.18
2022-12-15T01:33:23.034Z,58.75
2022-12-15T01:36:24.939Z,63.10
2022-12-15T01:39:46.512Z,50.90
2022-12-15T01:42:48.403Z,51.20
2022-12-15T01:45:51.970Z,56.40
2022-12-15T01:49:02.908Z,58.00
2022-12-15T01:52:07.492Z,60.60
2022-12-15T01:55:10.485Z,62.40
2022-12-15T01:58:15.822Z,53.38
2022-12-15T02:01:17.856Z,61.47
2022-12-15T02:04:22.718Z,61.97
2022-12-15T02:07:24.703Z,53.78
2022-12-15T02:10:31.154Z,54.17
2022-12-15T02:14:00.856Z,53.70
2022-12-15T02:17:17.835Z,63.15
2022-12-15T02:20:41.873Z,53.65
2022-12-15T02:24:19.441Z,51.63
2022-12-15T02:27:47.940Z,56.42
2022-12-15T02:31:21.674Z,51.53
2022-12-15T02:34:43.044Z,57.13
2022-12-15T02:37:45.373Z,56.40
2022-12-15T02:40:58.271Z,57.25
2022-12-15T02:44:02.222Z,50.67
2022-12-15T02:47:23.663Z,53.80
2022-12-15T02:50:43.458Z,45.83
2022-12-15T02:54:11.136Z,52.90
2022-12-15T02:57:33.079Z,46.63
2022-12-15T03:00:39.776Z,50.45
2022-12-15T03:03:43.645Z,52.38
2022-12-15T03:06:45.352Z,47.90
2022-12-15T03:09:46.943Z,45.58
2022-12-15T03:12:50.241Z,53.00
2022-12-15T03:15:52.789Z,55.42
2022-12-15T03:18:54.590Z,53.97
2022-12-15T03:21:56.160Z,51.30
2022-12-15T03:24:58.052Z,61.88
2022-12-15T03:27:59.672Z,57.42
2022-12-15T03:31:01.475Z,56.67
2022-12-15T03:34:03.089Z,55.55
2022-12-15T03:37:04.679Z,57.08
2022-12-15T03:40:07.310Z,48.38
2022-12-15T03:43:08.919Z,61.22
2022-12-15T03:46:10.552Z,58.45
2022-12-15T03:49:12.159Z,57.47
2022-12-15T03:52:13.747Z,56.25
2022-12-15T03:55:15.974Z,65.13
2022-12-15T03:58:17.560Z,57.80
2022-12-15T04:01:23.698Z,54.95
2022-12-15T04:04:25.295Z,63.25
2022-12-15T04:07:26.885Z,66.10
2022-12-15T04:10:34.235Z,65.55
2022-12-15T04:13:36.556Z,57.00
2022-12-15T04:16:38.195Z,61.42
2022-12-15T04:19:58.394Z,60.95
2022-12-15T04:23:00.347Z,63.17
2022-12-15T04:26:26.466Z,64.07
2022-12-15T04:29:46.767Z,62.90
2022-12-15T04:33:07.080Z,63.78
2022-12-15T04:36:28.920Z,65.85
2022-12-15T04:39:49.436Z,62.15
2022-12-15T04:43:09.872Z,68.28
2022-12-15T04:46:30.451Z,67.35
2022-12-15T04:53:10.809Z,58.30
2022-12-15T04:56:32.904Z,52.35
2022-12-15T04:59:53.396Z,59.10
2022-12-15T05:03:18.402Z,56.80
2022-12-15T05:06:39.003Z,60.35
2022-12-15T05:10:02.961Z,61.88
2022-12-15T05:13:27.364Z,58.85
2022-12-15T05:16:47.970Z,57.88
2022-12-15T05:20:08.364Z,56.97
2022-12-15T05:23:28.954Z,61.53
2022-12-15T05:26:53.056Z,61.67
2022-12-15T05:30:13.843Z,60.65
2022-12-15T05:33:15.422Z,63.33
2022-12-15T05:36:16.975Z,64.80
2022-12-15T05:39:19.132Z,63.13
2022-12-15T05:42:20.710Z,58.63
2022-12-15T05:45:22.344Z,60.50
2022-12-15T05:48:26.910Z,60.00
2022-12-15T05:51:28.525Z,58.25
2022-12-15T05:54:30.161Z,54.13
2022-12-15T05:57:31.805Z,64.07
2022-12-15T06:00:33.849Z,67.07
2022-12-15T06:03:36.010Z,62.63
2022-12-15T06:06:37.589Z,59.53
2022-12-15T06:09:39.423Z,62.10
2022-12-15T06:12:41.040Z,57.20
2022-12-15T06:15:42.696Z,63.30
2022-12-15T06:18:49.948Z,61.22
2022-12-15T06:21:51.890Z,60.67
2022-12-15T06:24:53.541Z,56.78
2022-12-15T06:28:01.447Z,58.55
2022-12-15T06:31:05.217Z,52.33
2022-12-15T06:34:10.360Z,62.90
2022-12-15T06:37:12.272Z,62.33
2022-12-15T06:40:13.996Z,63.72
2022-12-15T06:43:15.568Z,57.75
2022-12-15T06:46:17.567Z,59.58
2022-12-15T06:49:19.664Z,64.88
2022-12-15T06:52:21.299Z,68.38
2022-12-15T06:55:22.891Z,68.25
2022-12-15T06:58:25.059Z,63.00
2022-12-15T07:01:27.453Z,70.03
2022-12-15T07:04:31.532Z,63.47
2022-12-15T07:07:33.304Z,57.72
2022-12-15T07:10:37.782Z,62.60
2022-12-15T07:13:40.272Z,63.40
2022-12-15T07:16:41.986Z,57.70
2022-12-15T07:19:43.703Z,70.07
2022-12-15T07:22:51.031Z,68.72
2022-12-15T07:25:52.657Z,64.32
2022-12-15T07:28:54.600Z,67.28
2022-12-15T07:31:56.332Z,62.30
2022-12-15T07:34:58.227Z,68.63
2022-12-15T07:38:00.232Z,66.00
2022-12-15T07:41:03.816Z,63.08
2022-12-15T07:44:06.134Z,64.22
2022-12-15T07:47:07.765Z,63.05
2022-12-15T07:50:09.559Z,69.57
2022-12-15T07:53:11.343Z,70.68
2022-12-15T07:56:13.010Z,66.38
2022-12-15T07:59:14.597Z,62.22
2022-12-15T08:02:16.453Z,71.70
2022-12-15T08:05:18.177Z,67.28
2022-12-15T08:08:20.423Z,72.65
2022-12-15T08:11:23.202Z,68.43
2022-12-15T08:14:25.290Z,67.03
2022-12-15T08:17:27.084Z,68.25
2022-12-15T08:20:30.383Z,67.50
2022-12-15T08:23:32.829Z,57.50
2022-12-15T08:26:36.035Z,69.63
2022-12-15T08:29:53.176Z,73.75
2022-12-15T08:32:54.919Z,61.95
2022-12-15T08:36:06.152Z,73.05
2022-12-15T08:39:07.770Z,70.88
2022-12-15T08:42:09.382Z,70.57
2022-12-15T08:45:14.213Z,73.10
2022-12-15T08:48:15.834Z,76.32
2022-12-15T08:51:17.583Z,78.50
2022-12-15T08:54:20.359Z,78.88
2022-12-15T08:57:21.941Z,73.95
2022-12-15T09:00:23.876Z,78.32
2022-12-15T09:03:25.545Z,81.38
2022-12-15T09:06:30.437Z,85.22
2022-12-15T09:09:32.060Z,78.40
2022-12-15T09:12:33.613Z,77.90
2022-12-15T09:16:07.708Z,84.82
2022-12-15T09:18:58.645Z,80.18
2022-12-15T09:22:01.364Z,88.15
2022-12-15T09:25:06.758Z,82.07
2022-12-15T09:28:08.398Z,88.65
2022-12-15T09:31:21.103Z,92.40
2022-12-15T09:34:22.781Z,90.57
2022-12-15T09:37:24.379Z,86.95
2022-12-15T09:40:26.287Z,86.10
2022-12-15T09:43:38.927Z,90.68
2022-12-15T09:47:09.846Z,99.40
2022-12-15T09:50:15.204Z,95.40
2022-12-15T09:53:52.935Z,98.15
2022-12-15T09:56:57.839Z,93.95
2022-12-15T10:00:24.786Z,106.03
2022-12-15T10:04:11.646Z,106.10
2022-12-15T10:07:39.480Z,107.15
2022-12-15T10:10:58.022Z,105.22
2022-12-15T10:14:30.252Z,119.50
2022-12-15T10:17:40.646Z,115.00
2022-12-15T10:20:42.253Z,117.38
2022-12-15T10:23:43.885Z,115.22
2022-12-15T10:26:56.248Z,106.20
2022-12-15T10:30:04.165Z,109.22
2022-12-15T10:33:19.441Z,112.38
2022-12-15T10:36:21.042Z,107.30
2022-12-15T10:39:24.049Z,112.97
2022-12-15T10:42:27.006Z,113.15
2022-12-15T10:45:38.997Z,111.63
2022-12-15T10:48:48.588Z,116.30
2022-12-15T10:52:00.477Z,112.40
2022-12-15T10:55:02.222Z,109.70
2022-12-15T10:58:16.663Z,108.40
2022-12-15T11:01:24.256Z,101.75
2022-12-15T11:04:30.653Z,109.65
2022-12-15T11:07:41.920Z,104.13
2022-12-15T11:11:13.727Z,95.60
2022-12-15T11:14:26.810Z,113.10
2022-12-15T11:17:40.621Z,99.35
2022-12-15T11:21:04.347Z,104.10
2022-12-15T11:24:10.948Z,93.57
2022-12-15T11:27:23.963Z,102.53
2022-12-15T11:30:33.593Z,97.63
2022-12-15T11:33:35.592Z,100.03
2022-12-15T11:36:56.638Z,104.72
2022-12-15T11:43:19.387Z,100.85
2022-12-15T11:46:28.670Z,96.30
2022-12-15T11:50:07.617Z,104.10
2022-12-15T11:53:41.623Z,101.13
2022-12-15T11:56:50.348Z,98.97
2022-12-15T12:00:15.252Z,91.30
2022-12-15T12:03:50.649Z,96.35
2022-12-15T12:07:16.058Z,99.97
2022-12-15T12:10:36.183Z,100.28
2022-12-15T12:13:44.546Z,96.97
2022-12-15T12:17:02.207Z,108.93
2022-12-15T12:20:14.501Z,100.50
2022-12-15T12:23:24.027Z,109.88
2022-12-15T12:26:28.360Z,108.18
2022-12-15T12:29:37.876Z,97.82
2022-12-15T12:32:47.290Z,99.25
2022-12-15T12:36:00.949Z,94.45
2022-12-15T12:39:03.152Z,105.45
2022-12-15T12:42:21.282Z,112.53
2022-12-15T12:45:32.409Z,103.65
2022-12-15T12:48:41.499Z,104.05
2022-12-15T12:51:51.616Z,114.97
2022-12-15T12:55:14.852Z,104.57
2022-12-15T12:58:32.434Z,98.60
2022-12-15T13:01:37.791Z,107.03
2022-12-15T13:04:49.265Z,101.60
2022-12-15T13:07:57.147Z,117.88
2022-12-15T13:11:38.655Z,109.00
2022-12-15T13:14:40.354Z,80.55
2022-12-15T13:17:48.722Z,111.82
2022-12-15T13:20:55.215Z,102.35
2022-12-15T13:23:59.379Z,102.57
2022-12-15T13:27:08.023Z,97.55
2022-12-15T13:30:09.550Z,104.82
2022-12-15T13:33:18.317Z,99.35
2022-12-15T13:36:38.090Z,89.03
2022-12-15T13:39:55.323Z,75.97
2022-12-15T13:42:59.191Z,101.65
2022-12-15T13:46:11.582Z,99.78
2022-12-15T13:49:49.140Z,94.22
2022-12-15T13:56:54.968Z,93.63
2022-12-15T14:00:05.428Z,100.40
2022-12-15T14:03:11.579Z,95.03
2022-12-15T14:06:15.261Z,91.75
2022-12-15T14:09:21.738Z,81.13
2022-12-15T14:12:23.975Z,88.97
2022-12-15T14:15:31.536Z,94.72
2022-12-15T14:18:35.019Z,92.25
2022-12-15T14:21:37.515Z,100.90
2022-12-15T14:24:44.463Z,109.65
2022-12-15T14:27:50.987Z,100.63
2022-12-15T14:30:53.187Z,92.20
2022-12-15T14:34:07.848Z,103.13
2022-12-15T14:37:18.410Z,96.65
2022-12-15T14:43:41.931Z,109.30
2022-12-15T14:46:50.241Z,100.60
2022-12-15T14:49:55.081Z,104.68
2022-12-15T14:53:02.705Z,102.45
2022-12-15T14:56:29.475Z,95.88
2022-12-15T14:59:34.244Z,98.57
2022-12-15T15:02:35.992Z,99.93
2022-12-15T15:03:14.381Z,99.25
2022-12-15T15:05:40.792Z,102.68
2022-12-15T15:08:47.346Z,105.45
2022-12-15T15:12:49.146Z,104.93
2022-12-15T15:20:30.179Z,96.00
2022-12-15T15:24:15.945Z,89.82
2022-12-15T15:28:08.447Z,113.28
2022-12-15T15:31:57.252Z,98.07
2022-12-15T15:35:40.758Z,101.65
2022-12-15T15:38:43.983Z,99.45
2022-12-15T15:41:45.559Z,129.15
2022-12-15T15:44:47.341Z,125.20
2022-12-15T15:47:55.949Z,125.25
2022-12-15T15:51:00.248Z,131.88
2022-12-15T15:54:06.203Z,115.80
2022-12-15T15:57:13.334Z,113.35
2022-12-15T16:00:24.548Z,115.85
2022-12-15T16:03:26.293Z,114.50
2022-12-15T16:06:28.168Z,118.47
2022-12-15T16:09:29.774Z,122.38
2022-12-15T16:12:39.822Z,125.97
2022-12-15T16:15:41.830Z,120.75
2022-12-15T16:18:43.422Z,120.40
2022-12-15T16:21:45.087Z,110.85
2022-12-15T16:24:46.963Z,114.13
2022-12-15T16:27:48.539Z,115.10
2022-12-15T16:30:50.477Z,107.60
2022-12-15T16:33:52.130Z,106.97
2022-12-15T16:36:53.831Z,125.93
2022-12-15T16:39:55.458Z,122.03
2022-12-15T16:43:01.803Z,117.40
2022-12-15T16:46:03.559Z,124.30
2022-12-15T16:49:05.196Z,120.22
2022-12-15T16:52:18.377Z,115.80
2022-12-15T16:55:25.894Z,118.05
2022-12-15T16:58:28.952Z,107.47
2022-12-15T17:01:34.146Z,122.10
2022-12-15T17:04:38.303Z,121.05
2022-12-15T17:07:40.465Z,114.40
2022-12-15T17:10:45.126Z,106.15
2022-12-15T17:13:51.030Z,117.13
2022-12-15T17:16:52.576Z,128.30
2022-12-15T17:20:27.956Z,115.60
2022-12-15T17:23:20.445Z,119.38
2022-12-15T17:26:31.665Z,110.88
2022-12-15T17:29:33.754Z,116.90
2022-12-15T17:32:35.303Z,118.97
2022-12-15T17:35:36.908Z,111.88
2022-12-15T17:38:39.910Z,102.15
2022-12-15T17:45:09.935Z,120.88
2022-12-15T17:48:12.575Z,101.95
2022-12-15T17:51:20.446Z,116.80
2022-12-15T17:54:22.242Z,121.70
2022-12-15T17:57:23.978Z,117.20
2022-12-15T18:00:30.595Z,121.88
2022-12-15T18:03:32.853Z,117.03
2022-12-15T18:06:34.942Z,115.30
2022-12-15T18:09:38.723Z,112.05
2022-12-15T18:12:40.415Z,115.28
2022-12-15T18:15:42.598Z,104.50
2022-12-15T18:18:46.506Z,111.70
2022-12-15T18:21:50.240Z,94.40
2022-12-15T18:24:55.458Z,111.10
2022-12-15T18:28:02.137Z,115.32
2022-12-15T18:31:16.273Z,99.38
2022-12-15T18:34:21.077Z,112.95
2022-12-15T18:37:24.588Z,110.18
2022-12-15T18:40:29.517Z,112.07
2022-12-15T18:43:34.554Z,116.30
2022-12-15T18:46:36.455Z,110.78
2022-12-15T18:49:38.054Z,106.25
2022-12-15T18:52:39.711Z,109.82
2022-12-15T18:55:41.461Z,95.25
2022-12-15T18:58:43.087Z,101.85
2022-12-15T19:01:46.491Z,116.97
2022-12-15T19:04:54.493Z,113.10
2022-12-15T19:08:15.158Z,113.60
2022-12-15T19:14:41.691Z,112.80
2022-12-15T19:18:02.005Z,111.07
2022-12-15T19:21:42.365Z,112.95
2022-12-15T19:24:56.282Z,113.57
2022-12-15T19:27:59.689Z,115.88
2022-12-15T19:31:01.657Z,107.32
2022-12-15T19:34:03.219Z,106.68
2022-12-15T19:37:12.170Z,117.30
2022-12-15T19:40:22.072Z,113.35
2022-12-15T19:43:25.041Z,120.55
2022-12-15T19:46:27.392Z,114.88
2022-12-15T19:49:28.952Z,109.90
2022-12-15T19:52:31.183Z,108.85
2022-12-15T19:55:36.241Z,104.88
2022-12-15T19:58:38.624Z,119.70
2022-12-15T20:01:40.466Z,126.30
2022-12-15T20:04:42.071Z,108.90
2022-12-15T20:07:43.818Z,108.30
2022-12-15T20:10:46.542Z,105.18
2022-12-15T20:13:49.169Z,131.77
2022-12-15T20:16:50.796Z,105.72
2022-12-15T20:19:52.384Z,107.35
2022-12-15T20:23:04.559Z,110.60
2022-12-15T20:26:07.247Z,124.18
2022-12-15T20:29:22.124Z,113.32
2022-12-15T20:32:23.803Z,113.55
2022-12-15T20:35:25.403Z,111.80
2022-12-15T20:38:33.858Z,119.90
2022-12-15T20:41:35.593Z,112.28
2022-12-15T20:44:37.103Z,116.22
2022-12-15T20:47:45.618Z,124.85
2022-12-15T20:50:51.033Z,117.22
2022-12-15T20:53:55.726Z,124.88
2022-12-15T20:56:57.497Z,114.30
2022-12-15T20:59:59.412Z,126.13
2022-12-15T21:03:01.354Z,105.75
2022-12-15T21:06:03.000Z,112.60
2022-12-15T21:09:10.832Z,106.57
2022-12-15T21:12:25.507Z,114.88
2022-12-15T21:15:27.069Z,112.45
2022-12-15T21:19:10.808Z,111.35
2022-12-15T21:21:54.805Z,116.22
2022-12-15T21:24:58.499Z,117.00
2022-12-15T21:28:00.209Z,115.93
2022-12-15T21:31:02.194Z,106.80
2022-12-15T21:34:03.750Z,122.07
2022-12-15T21:37:12.394Z,112.32
2022-12-15T21:40:19.796Z,123.70
2022-12-15T21:43:23.763Z,116.40
2022-12-15T21:46:28.520Z,111.85
2022-12-15T21:49:30.294Z,120.45
2022-12-15T21:52:31.823Z,120.22
2022-12-15T21:55:33.487Z,117.82
2022-12-15T21:58:35.373Z,118.28
2022-12-15T22:01:37.133Z,129.70
2022-12-15T22:04:38.777Z,117.32
2022-12-15T22:07:40.384Z,121.32
2022-12-15T22:10:43.283Z,127.82
2022-12-15T22:13:45.358Z,122.18
2022-12-15T22:16:46.952Z,134.00
2022-12-15T22:19:48.480Z,140.73
2022-12-15T22:22:50.355Z,128.77
2022-12-15T22:25:55.049Z,117.30
2022-12-15T22:29:00.076Z,130.05
2022-12-15T22:32:02.129Z,131.70
2022-12-15T22:35:13.827Z,127.57
2022-12-15T22:38:16.268Z,138.23
2022-12-15T22:41:20.922Z,123.30
2022-12-15T22:44:25.270Z,119.25
2022-12-15T22:47:27.483Z,123.38
2022-12-15T22:50:29.264Z,123.95
2022-12-15T22:53:33.619Z,119.28
2022-12-15T22:56:39.243Z,108.80
2022-12-15T22:59:44.627Z,121.55
2022-12-15T23:02:47.539Z,116.63
2022-12-15T23:05:49.285Z,123.28
2022-12-15T23:08:55.857Z,112.97
2022-12-15T23:11:58.995Z,108.40
2022-12-15T23:15:23.617Z,108.80
2022-12-15T23:18:25.253Z,108.45
2022-12-15T23:21:27.286Z,110.38
2022-12-15T23:24:31.141Z,115.03
2022-12-15T23:27:33.603Z,107.97
2022-12-15T23:30:35.774Z,110.38
2022-12-15T23:33:39.915Z,117.80
2022-12-15T23:36:41.610Z,106.32
2022-12-15T23:39:43.306Z,102.57
2022-12-15T23:42:44.831Z,109.00
2022-12-15T23:45:46.590Z,100.25
2022-12-15T23:48:48.154Z,104.38
2022-12-15T23:51:49.655Z,110.18
2022-12-15T23:54:51.150Z,109.55
2022-12-15T23:57:56.594Z,109.82
